Time;durP1;ratioP1;P1;durP2;ratioP2;P2;SDS_P1;SDS_P2;PMS_P1;PMS_P2;Temp;Humidity;BMP_temperature;BMP_pressure;BME280_temperature;BME280_humidity;BME280_pressure;Samples;Min_cycle;Max_cycle;Signal;HPM_P1;HPM_P2
2022/09/01 16:13:36;;;;;;;1.80;0.60;;;;;;;24.65;31.96;101889.00;5118613;27;96493;-30
2022/09/01 16:16:08;;;;;;;1.40;0.70;;;;;;;24.63;31.08;101891.91;5078329;27;96910;-31
2022/09/01 16:18:45;;;;;;;;;;;;;;;24.63;31.35;101893.81;5057436;27;100782;-32
2022/09/01 16:21:21;;;;;;;2.88;0.50;;;;;;;24.58;31.82;101886.84;5075318;27;98034;-30
2022/09/01 16:23:50;;;;;;;0.63;0.60;;;;;;;24.53;31.37;101885.63;5057576;27;96578;-30
2022/09/01 16:26:22;;;;;;;0.88;0.60;;;;;;;24.48;31.62;101880.56;5057234;27;96937;-30
2022/09/01 16:28:56;;;;;;;1.40;0.47;;;;;;;24.50;31.53;101884.03;5056791;27;101038;-30
2022/09/01 16:31:30;;;;;;;1.15;0.63;;;;;;;24.48;30.88;101891.63;5056672;27;100873;-29
2022/09/01 16:34:00;;;;;;;2.13;0.40;;;;;;;24.43;31.71;101877.38;5075779;27;96516;-30
2022/09/01 16:36:48;;;;;;;3.60;0.70;;;;;;;24.37;31.25;101878.00;5057436;27;96804;-30
2022/09/01 16:39:28;;;;;;;0.60;0.40;;;;;;;24.36;31.39;101876.28;5056702;27;100983;-30
2022/09/01 16:42:06;;;;;;;1.13;0.70;;;;;;;24.32;31.88;101872.06;5074965;27;99217;-30
2022/09/01 16:44:41;;;;;;;1.35;0.40;;;;;;;24.30;31.49;101880.53;5057158;27;96728;-29
2022/09/01 16:47:33;;;;;;;1.23;0.55;;;;;;;24.28;31.97;101865.97;5075537;27;96630;-29
2022/09/01 16:50:08;;;;;;;0.68;0.32;;;;;;;24.23;31.75;101871.13;5075199;27;98061;-30
2022/09/01 16:52:52;;;;;;;1.75;0.45;;;;;;;24.22;30.94;101869.38;5056364;27;100830;-30
2022/09/01 16:55:45;;;;;;;1.13;0.45;;;;;;;24.17;31.18;101863.47;5057121;27;97129;-30
2022/09/01 16:58:50;;;;;;;0.70;0.40;;;;;;;24.16;31.82;101865.34;5075502;27;96758;-30
2022/09/01 17:01:29;;;;;;;1.38;0.40;;;;;;;24.17;31.46;101866.22;5056171;27;101439;-29
2022/09/01 17:04:06;;;;;;;1.08;0.68;;;;;;;24.15;31.42;101863.63;5056057;27;100685;-31
2022/09/01 17:06:47;;;;;;;0.57;0.50;;;;;;;24.10;32.07;101859.59;5075124;27;96513;-30
2022/09/01 17:09:34;;;;;;;1.05;0.43;;;;;;;24.10;32.34;101865.13;5056821;27;96681;-30
2022/09/01 17:12:22;;;;;;;1.17;0.40;;;;;;;24.08;32.50;101854.19;5074223;27;98067;-30
2022/09/01 17:14:55;;;;;;;1.05;0.60;;;;;;;24.01;32.87;101861.41;5074164;27;99547;-30
2022/09/01 17:17:29;;;;;;;3.38;0.90;;;;;;;23.97;32.64;101859.09;5056427;27;96647;-31
2022/09/01 17:19:55;;;;;;;1.35;0.50;;;;;;;23.97;32.93;101859.97;5056548;27;96728;-30
2022/09/01 17:22:20;;;;;;;4.22;0.82;;;;;;;23.90;32.93;101858.84;5074448;27;98397;-30
2022/09/01 17:25:02;;;;;;;1.85;0.73;;;;;;;23.86;32.67;101851.88;5061953;27;97368;-30
2022/09/01 17:27:51;;;;;;;;;;;;;;;23.80;32.38;101858.94;5043132;27;96543;-29
2022/09/01 17:30:17;;;;;;;3.30;1.10;;;;;;;23.77;33.27;101850.94;5049606;27;96943;-30
2022/09/01 17:33:14;;;;;;;1.77;0.85;;;;;;;23.74;32.69;101854.91;5060366;27;99734;-29
2022/09/01 17:36:07;;;;;;;2.78;0.50;;;;;;;23.72;33.31;101853.28;5059758;27;99523;-30
2022/09/01 17:38:52;;;;;;;2.72;0.50;;;;;;;23.72;33.82;101850.50;5042820;27;96604;-29
2022/09/01 17:41:36;;;;;;;0.68;0.50;;;;;;;23.65;34.43;101849.41;5042584;27;96802;-29
2022/09/01 17:44:22;;;;;;;1.17;0.55;;;;;;;23.57;34.68;101841.00;5041941;27;101467;-30
2022/09/01 17:46:55;;;;;;;0.68;0.35;;;;;;;23.56;34.10;101850.31;5060240;27;99279;-30
2022/09/01 17:49:43;;;;;;;1.58;0.60;;;;;;;23.52;34.04;101846.97;5042834;27;96553;-30
2022/09/01 17:52:46;;;;;;;0.93;0.50;;;;;;;23.45;34.35;101845.88;5042458;27;96787;-30
2022/09/01 17:55:11;;;;;;;0.82;0.50;;;;;;;23.38;34.83;101842.84;5041877;27;101084;-30
2022/09/01 17:57:45;;;;;;;0.60;0.40;;;;;;;23.35;35.40;101847.81;5060244;27;96623;-30
2022/09/01 18:00:32;;;;;;;0.90;0.50;;;;;;;23.28;34.70;101837.38;5042128;27;96692;-32
2022/09/01 18:03:21;;;;;;;1.17;0.45;;;;;;;23.26;35.43;101849.59;5060971;27;96575;-33
2022/09/01 18:06:05;;;;;;;1.67;0.65;;;;;;;23.18;35.39;101846.75;5060268;27;97396;-30
2022/09/01 18:08:42;;;;;;;1.10;0.70;;;;;;;23.17;34.99;101845.88;5041547;27;101589;-30
2022/09/01 18:11:17;;;;;;;0.93;0.52;;;;;;;23.11;35.44;101850.09;5060663;27;96499;-30
2022/09/01 18:13:57;;;;;;;2.65;0.60;;;;;;;23.06;36.02;101843.31;5060663;27;96595;-30
2022/09/01 18:16:26;;;;;;;0.80;0.50;;;;;;;23.03;36.14;101854.66;5041374;27;101046;-31
2022/09/01 18:18:52;;;;;;;0.55;0.43;;;;;;;22.95;36.12;101849.84;5041278;27;100842;-30
2022/09/01 18:21:27;;;;;;;0.75;0.50;;;;;;;22.91;36.67;101853.94;5060178;27;96661;-30
2022/09/01 18:24:00;;;;;;;3.08;0.50;;;;;;;22.81;37.03;101845.69;5041957;27;96859;-29
2022/09/01 18:26:34;;;;;;;1.00;0.50;;;;;;;22.75;37.05;101849.03;5041435;27;101361;-29
2022/09/01 18:29:00;;;;;;;1.10;0.68;;;;;;;22.69;37.42;101857.91;5059565;27;99181;-30
2022/09/01 18:32:03;;;;;;;1.05;0.50;;;;;;;22.56;37.78;101855.47;5059804;27;96653;-30
2022/09/01 18:34:31;;;;;;;1.00;0.50;;;;;;;22.46;37.89;101858.25;5060001;27;96551;-29
2022/09/01 18:37:14;;;;;;;3.08;0.50;;;;;;;22.37;38.10;101864.66;5058816;27;97797;-30
2022/09/01 18:40:15;;;;;;;0.65;0.47;;;;;;;22.24;39.42;101859.47;5059546;27;96704;-30
2022/09/01 18:42:55;;;;;;;0.95;0.50;;;;;;;22.17;39.47;101855.50;5034216;27;98152;-30
2022/09/01 18:45:23;;;;;;;0.88;0.60;;;;;;;22.14;39.28;101864.06;5041738;27;96666;-29
2022/09/01 18:48:05;;;;;;;1.63;0.70;;;;;;;22.10;39.54;101870.03;5041091;27;100763;-30
2022/09/01 18:50:40;;;;;;;3.55;0.80;;;;;;;22.08;39.72;101870.16;5041040;27;100869;-30
2022/09/01 18:53:22;;;;;;;2.17;0.80;;;;;;;21.99;39.78;101866.38;5059585;27;96586;-30
2022/09/01 18:55:54;;;;;;;1.13;0.50;;;;;;;21.96;39.58;101866.69;5059838;27;96693;-29
2022/09/01 18:58:38;;;;;;;;;;;;;;;21.89;40.66;101870.16;5060104;27;97435;-29
2022/09/01 19:01:11;;;;;;;0.98;0.60;;;;;;;21.80;40.33;101870.00;5059228;27;99214;-29
2022/09/01 19:04:03;;;;;;;1.73;0.80;;;;;;;21.79;40.88;101867.41;5041304;27;96555;-29
2022/09/01 19:06:31;;;;;;;;;;;;;;;21.76;40.69;101870.41;5059972;27;96845;-31
2022/09/01 19:09:20;;;;;;;0.98;0.57;;;;;;;21.72;40.54;101861.56;5040668;27;100578;-31
2022/09/01 19:11:54;;;;;;;1.67;0.85;;;;;;;21.70;40.42;101858.06;5058358;27;99332;-30
2022/09/01 19:14:36;;;;;;;3.35;0.85;;;;;;;21.65;40.86;101863.16;5059384;27;96719;-29
2022/09/01 19:17:15;;;;;;;;;;;;;;;21.60;41.25;101859.94;5060118;27;96673;-29
2022/09/01 19:19:52;;;;;;;1.30;0.60;;;;;;;21.53;41.85;101864.28;5058906;27;99345;-30
2022/09/01 19:22:26;;;;;;;1.20;0.43;;;;;;;21.52;40.89;101868.03;5040610;27;100854;-30
2022/09/01 19:25:32;;;;;;;1.65;0.55;;;;;;;21.48;41.27;101861.09;5059484;27;96532;-31
2022/09/01 19:28:20;;;;;;;1.35;0.50;;;;;;;21.48;41.73;101875.75;5058970;27;96759;-31
2022/09/01 19:30:56;;;;;;;1.13;0.38;;;;;;;21.43;41.08;101867.03;5034776;27;100077;-31
2022/09/01 19:33:26;;;;;;;0.63;0.52;;;;;;;21.40;41.09;101881.06;5040263;27;100736;-30
2022/09/01 19:35:56;;;;;;;4.03;0.68;;;;;;;21.36;41.17;101871.31;5040854;27;96567;-31
2022/09/01 19:38:26;;;;;;;1.77;0.80;;;;;;;21.30;41.23;101874.63;5040895;27;96834;-31
2022/09/01 19:40:59;;;;;;;1.30;0.70;;;;;;;21.27;41.47;101873.00;5058557;27;99584;-31
2022/09/01 19:43:30;;;;;;;1.98;0.73;;;;;;;21.24;41.54;101869.66;5040306;27;101300;-30
2022/09/01 19:46:17;;;;;;;1.02;0.68;;;;;;;21.17;41.98;101872.13;5040661;27;96570;-30
2022/09/01 19:48:45;;;;;;;1.75;0.90;;;;;;;21.16;41.63;101878.63;5040574;27;96797;-31
2022/09/01 19:51:17;;;;;;;1.67;1.02;;;;;;;21.10;41.83;101874.53;5040021;27;101220;-32
2022/09/01 19:53:45;;;;;;;1.20;0.70;;;;;;;21.08;41.50;101873.81;5040093;27;100767;-30
2022/09/01 19:56:19;;;;;;;3.15;1.05;;;;;;;21.04;41.71;101883.34;5059000;27;96665;-30
2022/09/01 19:59:02;;;;;;;1.48;0.80;;;;;;;20.96;42.30;101883.19;5040424;27;96787;-30
2022/09/01 20:01:42;;;;;;;2.00;0.88;;;;;;;20.93;42.28;101887.06;5058564;27;98228;-32
2022/09/01 20:04:51;;;;;;;1.65;0.90;;;;;;;20.91;42.50;101885.47;5039799;27;100280;-31
2022/09/01 20:07:31;;;;;;;1.23;0.75;;;;;;;20.85;42.58;101877.75;5058864;27;96769;-30
2022/09/01 20:10:20;;;;;;;0.63;0.47;;;;;;;20.84;42.76;101895.28;5040394;27;96841;-31
2022/09/01 20:13:08;;;;;;;3.83;0.82;;;;;;;20.79;42.87;101880.03;5039005;27;100839;-32
2022/09/01 20:15:52;;;;;;;1.15;0.73;;;;;;;20.76;43.03;101868.41;5039110;27;101214;-31
2022/09/01 20:18:26;;;;;;;1.70;0.70;;;;;;;20.74;42.88;101874.06;5040307;27;96584;-30
2022/09/01 20:20:54;;;;;;;2.58;0.80;;;;;;;20.73;42.97;101876.94;5040257;27;96786;-31
2022/09/01 20:24:01;;;;;;;1.70;0.93;;;;;;;20.73;43.55;101885.19;5039466;27;101484;-31
2022/09/01 20:26:43;;;;;;;2.13;0.80;;;;;;;20.72;43.47;101876.09;5052695;27;98037;-31
2022/09/01 20:29:24;;;;;;;1.70;0.90;;;;;;;20.70;43.16;101872.59;5040219;27;96681;-31
2022/09/01 20:31:55;;;;;;;1.95;0.82;;;;;;;20.67;43.67;101875.63;5039998;27;96797;-31
2022/09/01 20:34:33;;;;;;;1.50;0.93;;;;;;;20.63;43.49;101879.63;5039195;27;101302;-31
2022/09/01 20:37:13;;;;;;;1.85;0.77;;;;;;;20.58;43.53;101871.78;5039514;27;101284;-30
2022/09/01 20:40:03;;;;;;;2.17;1.00;;;;;;;20.60;43.98;101870.78;5039190;27;96598;-33
2022/09/01 20:43:00;;;;;;;3.80;1.48;;;;;;;20.57;44.18;101872.81;5057715;27;96697;-31
2022/09/01 20:45:27;;;;;;;1.10;0.80;;;;;;;20.48;43.84;101873.56;5038658;27;101387;-31
2022/09/01 20:48:00;;;;;;;3.35;1.33;;;;;;;20.46;44.11;101877.47;5038557;27;100940;-32
2022/09/01 20:50:50;;;;;;;2.08;0.90;;;;;;;20.47;44.57;101876.44;5056638;27;96509;-31
2022/09/01 20:53:33;;;;;;;1.58;0.93;;;;;;;20.44;44.57;101876.72;5057105;27;96771;-30
2022/09/01 20:56:16;;;;;;;1.30;0.90;;;;;;;20.42;45.02;101875.97;5057293;27;96844;-31
2022/09/01 20:58:59;;;;;;;5.07;0.82;;;;;;;20.37;44.12;101877.25;5039211;27;101237;-33
2022/09/01 21:01:47;;;;;;;2.38;1.05;;;;;;;20.34;44.81;101868.41;5060725;27;96769;-30
2022/09/01 21:04:39;;;;;;;3.30;0.80;;;;;;;20.28;44.60;101872.53;5042340;27;96766;-36
2022/09/01 21:07:20;;;;;;;0.98;0.60;;;;;;;20.17;44.72;101869.00;5003114;27;101316;-31
2022/09/01 21:10:24;;;;;;;2.55;0.63;;;;;;;20.14;44.72;101871.00;5041879;27;101108;-31
2022/09/01 21:13:14;;;;;;;4.57;0.98;;;;;;;20.05;44.47;101870.91;5041544;27;96839;-30
2022/09/01 21:16:05;;;;;;;4.03;0.98;;;;;;;20.00;45.23;101868.56;5060530;27;96607;-31
2022/09/01 21:18:57;;;;;;;1.15;0.70;;;;;;;20.00;44.44;101868.56;5059370;27;97427;-30
2022/09/01 21:22:01;;;;;;;1.80;0.88;;;;;;;19.99;45.18;101868.69;5059836;27;99211;-31
2022/09/01 21:24:26;;;;;;;1.27;0.60;;;;;;;19.98;45.15;101858.69;5011873;27;96922;-30
2022/09/01 21:26:55;;;;;;;1.25;0.70;;;;;;;19.94;45.63;101855.31;5060122;27;96823;-31
2022/09/01 21:29:49;;;;;;;4.72;1.08;;;;;;;19.88;45.36;101859.47;5041495;27;101409;-31
2022/09/01 21:32:15;;;;;;;5.05;0.82;;;;;;;19.80;44.67;101850.97;5059569;27;97334;-31
2022/09/01 21:34:44;;;;;;;1.20;0.70;;;;;;;19.75;45.22;101846.88;5041773;27;96697;-31
2022/09/01 21:37:10;;;;;;;2.15;0.98;;;;;;;19.68;45.20;101847.38;5041980;27;96948;-31
2022/09/01 21:39:36;;;;;;;1.67;1.00;;;;;;;19.67;45.18;101847.50;5059417;27;99240;-31
2022/09/01 21:42:05;;;;;;;1.25;0.80;;;;;;;19.65;45.27;101855.00;5041287;27;100909;-31
2022/09/01 21:44:30;;;;;;;1.10;0.75;;;;;;;19.61;45.33;101845.25;5041107;27;96597;-30
2022/09/01 21:46:57;;;;;;;1.13;0.93;;;;;;;19.56;44.84;101842.91;5041569;27;96850;-30
2022/09/01 21:49:22;;;;;;;1.75;0.95;;;;;;;19.49;45.02;101839.78;5040975;27;101016;-30
2022/09/01 21:51:49;;;;;;;1.13;0.80;;;;;;;19.41;45.57;101850.56;5059410;27;97296;-32
2022/09/01 21:54:15;;;;;;;2.38;1.13;;;;;;;19.37;45.36;101846.31;5041371;27;97352;-31
2022/09/01 21:56:40;;;;;;;2.80;0.77;;;;;;;19.41;45.44;101844.19;5059792;27;96831;-31
2022/09/01 21:59:05;;;;;;;1.40;0.82;;;;;;;19.38;45.10;101838.94;5059331;27;98168;-30
2022/09/01 22:01:34;;;;;;;1.15;0.85;;;;;;;19.39;45.29;101843.44;5059874;27;97812;-31
2022/09/01 22:04:00;;;;;;;2.03;0.93;;;;;;;19.35;45.07;101844.69;5041120;27;96697;-31
2022/09/01 22:06:26;;;;;;;1.67;0.90;;;;;;;19.31;45.21;101833.97;5041431;27;96929;-31
2022/09/01 22:08:53;;;;;;;1.05;0.70;;;;;;;19.27;45.63;101832.47;5040347;27;100752;-30
2022/09/01 22:11:20;;;;;;;1.52;0.88;;;;;;;19.23;45.26;101835.59;5039724;27;101058;-30
2022/09/01 22:13:47;;;;;;;2.03;0.85;;;;;;;19.19;45.18;101821.25;5059396;27;96732;-30
2022/09/01 22:16:18;;;;;;;4.15;0.77;;;;;;;19.23;45.25;101832.84;5040943;27;96944;-31
2022/09/01 22:18:43;;;;;;;5.73;0.90;;;;;;;19.17;45.64;101826.00;5040666;27;100688;-30
2022/09/01 22:21:09;;;;;;;1.90;0.90;;;;;;;19.15;45.24;101827.97;5058309;27;118720;-31
2022/09/01 22:23:35;;;;;;;2.60;1.25;;;;;;;19.10;45.48;101828.34;5059528;27;96524;-30
2022/09/01 22:26:01;;;;;;;1.40;0.65;;;;;;;19.08;45.27;101829.50;5041450;27;96796;-32
2022/09/01 22:28:26;;;;;;;4.05;0.88;;;;;;;19.01;45.32;101822.75;5059124;27;97713;-30
2022/09/01 22:30:51;;;;;;;1.45;0.90;;;;;;;19.03;45.36;101829.88;5058768;27;97302;-32
2022/09/01 22:33:19;;;;;;;1.20;0.63;;;;;;;19.00;45.25;101829.25;5058205;27;96550;-31
2022/09/01 22:35:47;;;;;;;1.77;1.00;;;;;;;18.94;45.87;101824.25;5040882;27;96968;-31
2022/09/01 22:38:13;;;;;;;1.67;0.73;;;;;;;18.94;46.04;101814.13;5040289;27;100622;-30
2022/09/01 22:40:47;;;;;;;0.57;0.55;;;;;;;18.97;45.82;101833.09;5040376;27;100775;-31
2022/09/01 22:43:16;;;;;;;0.70;0.60;;;;;;;18.93;45.33;101834.38;5040706;27;96696;-30
2022/09/01 22:45:43;;;;;;;1.20;0.70;;;;;;;18.88;45.92;101820.16;5040629;27;96967;-31
2022/09/01 22:48:08;;;;;;;1.40;0.80;;;;;;;18.84;46.19;101824.13;5040236;27;100984;-32
2022/09/01 22:50:38;;;;;;;1.85;1.10;;;;;;;18.74;46.08;101812.13;5058668;27;99095;-30
2022/09/01 22:53:04;;;;;;;1.50;0.82;;;;;;;18.71;46.10;101815.09;5040660;27;97099;-31
2022/09/01 22:55:29;;;;;;;1.10;0.63;;;;;;;18.61;46.01;101814.97;5058867;27;96578;-31
2022/09/01 22:57:54;;;;;;;1.20;0.68;;;;;;;18.58;46.62;101807.84;5058043;27;97846;-31
2022/09/01 23:00:20;;;;;;;1.20;0.70;;;;;;;18.58;46.10;101813.34;5058316;27;97391;-32
2022/09/01 23:02:45;;;;;;;1.40;0.68;;;;;;;18.57;46.14;101806.13;5058917;27;97407;-31
2022/09/01 23:05:10;;;;;;;2.60;0.60;;;;;;;18.56;46.30;101804.34;5059018;27;96843;-32
2022/09/01 23:07:36;;;;;;;1.23;0.77;;;;;;;18.56;46.24;101804.34;5058064;27;99337;-30
2022/09/01 23:10:03;;;;;;;1.58;0.75;;;;;;;18.54;46.09;101799.97;5058246;27;97911;-30
2022/09/01 23:12:29;;;;;;;1.00;0.57;;;;;;;18.49;46.41;101794.84;5039159;27;96844;-30
2022/09/01 23:14:54;;;;;;;0.93;0.73;;;;;;;18.50;46.09;101798.50;5058250;27;96890;-30
2022/09/01 23:17:19;;;;;;;2.13;0.77;;;;;;;18.48;46.00;101800.50;5058041;27;99421;-31
2022/09/01 23:19:46;;;;;;;1.08;0.65;;;;;;;18.50;46.46;101788.41;5057818;27;99097;-30
2022/09/01 23:22:11;;;;;;;1.77;0.88;;;;;;;18.51;46.25;101795.63;5038959;27;96610;-30
2022/09/01 23:24:37;;;;;;;1.42;0.77;;;;;;;18.48;46.13;101787.63;5058369;27;96808;-32
2022/09/01 23:27:02;;;;;;;2.33;0.90;;;;;;;18.44;46.52;101788.88;5057959;27;100925;-32
2022/09/01 23:29:27;;;;;;;0.75;0.52;;;;;;;18.38;45.92;101787.50;5039890;27;97361;-30
2022/09/01 23:31:53;;;;;;;0.93;0.57;;;;;;;18.39;46.04;101782.88;5058372;27;96421;-30
2022/09/01 23:34:18;;;;;;;0.68;0.50;;;;;;;18.40;46.56;101781.88;5058197;27;96798;-33
2022/09/01 23:36:44;;;;;;;2.03;0.70;;;;;;;18.37;46.14;101776.63;5057615;27;99301;-30
2022/09/01 23:39:09;;;;;;;0.85;0.60;;;;;;;18.32;46.76;101778.88;5058220;27;97662;-30
2022/09/01 23:41:36;;;;;;;1.90;0.70;;;;;;;18.31;46.44;101775.28;5058000;27;96660;-30
2022/09/01 23:44:04;;;;;;;2.13;0.95;;;;;;;18.28;46.43;101770.00;5039635;27;96862;-30
2022/09/01 23:46:33;;;;;;;0.88;0.57;;;;;;;18.24;46.67;101774.00;5038619;27;101499;-31
2022/09/01 23:49:00;;;;;;;0.98;0.80;;;;;;;18.16;46.50;101777.38;5039124;27;101170;-32
2022/09/01 23:51:25;;;;;;;0.82;0.60;;;;;;;18.12;46.65;101764.00;5039769;27;96572;-30
2022/09/01 23:53:51;;;;;;;0.85;0.63;;;;;;;18.11;46.82;101774.09;5058235;27;96787;-30
2022/09/01 23:56:20;;;;;;;2.25;0.90;;;;;;;18.12;47.15;101767.63;5057373;27;99260;-30
2022/09/01 23:58:45;;;;;;;3.97;0.80;;;;;;;18.13;46.81;101773.97;5039010;27;101050;-35
